Time;durP1;ratioP1;P1;durP2;ratioP2;P2;SDS_P1;SDS_P2;PMS_P1;PMS_P2;Temp;Humidity;BMP_temperature;BMP_pressure;BME280_temperature;BME280_humidity;BME280_pressure;Samples;Min_cycle;Max_cycle;Signal;HPM_P1;HPM_P2
2023/12/07 00:01:52;;;;;;;15.98;11.05;;;;;;;;;;10442425;28;20029;-65
2023/12/07 00:06:53;;;;;;;16.00;10.82;;;;;;;;;;10427282;28;20033;-65
2023/12/07 00:11:53;;;;;;;15.07;10.80;;;;;;;;;;10434045;28;20028;-64
2023/12/07 00:16:54;;;;;;;15.48;10.23;;;;;;;;;;10433721;28;20036;-66
2023/12/07 00:21:55;;;;;;;13.88;9.85;;;;;;;;;;10406237;28;20038;-66
2023/12/07 00:26:56;;;;;;;15.57;10.07;;;;;;;;;;10429508;28;20033;-66
2023/12/07 00:31:56;;;;;;;16.25;10.18;;;;;;;;;;10443370;28;20468;-66
2023/12/07 00:36:57;;;;;;;14.07;9.80;;;;;;;;;;10441058;28;20028;-66
2023/12/07 00:41:57;;;;;;;18.65;9.73;;;;;;;;;;10412678;28;20025;-66
2023/12/07 00:46:58;;;;;;;13.80;10.02;;;;;;;;;;10431203;28;20504;-65
2023/12/07 00:51:59;;;;;;;12.60;9.55;;;;;;;;;;10437664;28;20505;-65
2023/12/07 00:56:59;;;;;;;14.10;9.95;;;;;;;;;;10449660;28;20499;-65
2023/12/07 01:02:01;;;;;;;11.48;9.43;;;;;;;;;;10428370;28;20036;-65
2023/12/07 01:07:02;;;;;;;14.48;10.00;;;;;;;;;;10444877;28;20032;-65
2023/12/07 01:12:03;;;;;;;13.13;9.40;;;;;;;;;;10447552;28;20021;-64
2023/12/07 01:17:04;;;;;;;11.52;8.93;;;;;;;;;;10444603;28;20491;-64
2023/12/07 01:22:04;;;;;;;12.38;8.88;;;;;;;;;;10450613;28;20547;-64
2023/12/07 01:27:06;;;;;;;15.15;9.15;;;;;;;;;;10443778;28;20037;-64
2023/12/07 01:32:06;;;;;;;13.10;9.45;;;;;;;;;;10412767;28;20034;-65
2023/12/07 01:37:07;;;;;;;12.20;8.05;;;;;;;;;;10434552;28;20025;-64
2023/12/07 01:42:09;;;;;;;15.35;8.85;;;;;;;;;;10442796;28;20037;-65
2023/12/07 01:47:10;;;;;;;14.57;9.48;;;;;;;;;;10448813;28;20032;-65
2023/12/07 01:52:11;;;;;;;15.23;9.57;;;;;;;;;;10428358;28;20051;-65
2023/12/07 01:57:11;;;;;;;10.35;8.40;;;;;;;;;;10441595;28;20036;-64
2023/12/07 02:02:12;;;;;;;13.90;8.63;;;;;;;;;;10445746;28;20149;-64
2023/12/07 02:07:14;;;;;;;10.70;8.32;;;;;;;;;;10435943;28;20024;-64
2023/12/07 02:12:15;;;;;;;12.27;8.30;;;;;;;;;;10445201;28;20385;-65
2023/12/07 02:17:34;;;;;;;12.90;8.43;;;;;;;;;;10434820;28;20021;-65
2023/12/07 02:22:51;;;;;;;14.52;8.82;;;;;;;;;;10446078;28;20032;-66
2023/12/07 02:27:52;;;;;;;12.90;8.88;;;;;;;;;;10458844;28;20572;-65
2023/12/07 02:32:52;;;;;;;10.98;8.55;;;;;;;;;;10436011;28;20020;-65
2023/12/07 02:37:54;;;;;;;10.80;7.97;;;;;;;;;;10435546;28;20029;-65
2023/12/07 02:42:56;;;;;;;12.38;8.80;;;;;;;;;;10434925;28;20032;-65
2023/12/07 02:47:57;;;;;;;14.50;8.93;;;;;;;;;;10446977;28;20430;-65
2023/12/07 02:52:58;;;;;;;11.23;7.50;;;;;;;;;;10445460;28;20063;-65
2023/12/07 02:57:59;;;;;;;14.15;8.13;;;;;;;;;;10435041;28;20032;-66
2023/12/07 03:02:59;;;;;;;10.05;7.70;;;;;;;;;;10443947;28;20453;-66
2023/12/07 03:08:00;;;;;;;12.43;8.38;;;;;;;;;;10444426;28;20595;-65
2023/12/07 03:13:00;;;;;;;10.45;7.82;;;;;;;;;;10445959;28;20404;-65
2023/12/07 03:18:01;;;;;;;9.85;7.82;;;;;;;;;;10446370;28;20028;-65
2023/12/07 03:23:02;;;;;;;10.55;7.43;;;;;;;;;;10441865;28;20041;-65
2023/12/07 03:28:02;;;;;;;10.93;7.45;;;;;;;;;;10439486;28;20025;-64
2023/12/07 03:33:03;;;;;;;10.57;7.53;;;;;;;;;;10435210;28;20384;-66
2023/12/07 03:38:04;;;;;;;11.20;7.57;;;;;;;;;;10438807;28;20240;-66
2023/12/07 03:43:04;;;;;;;12.05;6.82;;;;;;;;;;10432199;28;20481;-67
2023/12/07 03:48:05;;;;;;;8.88;7.43;;;;;;;;;;10420391;28;20052;-66
2023/12/07 03:53:05;;;;;;;10.55;7.40;;;;;;;;;;10444052;28;20049;-67
2023/12/07 03:58:06;;;;;;;9.60;7.50;;;;;;;;;;10432594;28;20025;-67
2023/12/07 04:03:06;;;;;;;8.90;7.00;;;;;;;;;;10458972;28;20090;-67
2023/12/07 04:08:07;;;;;;;9.63;6.95;;;;;;;;;;10454726;28;20044;-67
2023/12/07 04:13:08;;;;;;;9.82;6.95;;;;;;;;;;10431639;28;20052;-67
2023/12/07 04:18:09;;;;;;;8.30;6.47;;;;;;;;;;10453735;28;20484;-67
2023/12/07 04:23:09;;;;;;;8.80;7.47;;;;;;;;;;10445381;28;20490;-66
2023/12/07 04:28:10;;;;;;;10.07;6.50;;;;;;;;;;10451428;28;20357;-65
2023/12/07 04:33:10;;;;;;;8.57;6.90;;;;;;;;;;10461099;28;20060;-65
2023/12/07 04:38:11;;;;;;;9.77;6.78;;;;;;;;;;10438930;28;20189;-63
2023/12/07 04:43:11;;;;;;;9.25;7.20;;;;;;;;;;10450371;28;20142;-65
2023/12/07 04:48:12;;;;;;;8.57;6.75;;;;;;;;;;10450880;28;20025;-65
2023/12/07 04:53:12;;;;;;;9.18;6.90;;;;;;;;;;10425706;28;20103;-64
2023/12/07 04:58:13;;;;;;;8.93;6.32;;;;;;;;;;10439521;28;20029;-64
2023/12/07 05:03:14;;;;;;;7.50;6.43;;;;;;;;;;10450624;28;20467;-65
2023/12/07 05:08:14;;;;;;;9.00;6.75;;;;;;;;;;10460772;28;20047;-65
2023/12/07 05:13:15;;;;;;;7.40;6.03;;;;;;;;;;10428985;28;20079;-65
2023/12/07 05:18:15;;;;;;;9.27;6.07;;;;;;;;;;10444735;28;20021;-66
2023/12/07 05:23:17;;;;;;;9.15;6.90;;;;;;;;;;10449844;28;20029;-66
2023/12/07 05:28:17;;;;;;;7.18;6.03;;;;;;;;;;10436689;28;20475;-66
2023/12/07 05:33:21;;;;;;;8.98;6.63;;;;;;;;;;10423600;28;20021;-66
2023/12/07 05:38:22;;;;;;;7.03;5.95;;;;;;;;;;10435113;28;20017;-66
2023/12/07 05:43:23;;;;;;;8.30;6.25;;;;;;;;;;10427111;28;20041;-66
2023/12/07 05:48:23;;;;;;;7.72;6.20;;;;;;;;;;10396215;28;20041;-66
2023/12/07 05:53:24;;;;;;;8.00;5.78;;;;;;;;;;10398709;28;20042;-66
2023/12/07 05:58:25;;;;;;;7.93;5.82;;;;;;;;;;10414856;28;20086;-66
2023/12/07 06:03:25;;;;;;;7.65;5.93;;;;;;;;;;10430735;28;20432;-67
2023/12/07 06:08:26;;;;;;;7.88;6.28;;;;;;;;;;10433804;28;20411;-66
2023/12/07 06:13:27;;;;;;;8.60;5.95;;;;;;;;;;10432822;28;20022;-64
2023/12/07 06:18:27;;;;;;;6.60;5.65;;;;;;;;;;10433285;28;20033;-64
2023/12/07 06:23:28;;;;;;;7.20;5.90;;;;;;;;;;10424095;28;20030;-66
2023/12/07 06:28:29;;;;;;;7.82;5.50;;;;;;;;;;10432968;28;20021;-64
2023/12/07 06:33:29;;;;;;;6.95;5.78;;;;;;;;;;10432114;28;20017;-64
2023/12/07 06:38:30;;;;;;;7.63;5.65;;;;;;;;;;10425960;28;20052;-66
2023/12/07 06:43:31;;;;;;;7.53;5.75;;;;;;;;;;10434014;28;20059;-64
2023/12/07 06:48:31;;;;;;;10.93;6.40;;;;;;;;;;10433207;28;20427;-64
2023/12/07 06:53:32;;;;;;;14.23;7.40;;;;;;;;;;10390052;28;1118526;-64
2023/12/07 06:58:32;;;;;;;13.30;7.70;;;;;;;;;;10431163;28;20517;-64
2023/12/07 07:03:35;;;;;;;10.43;7.63;;;;;;;;;;10443248;28;20036;-62
2023/12/07 07:08:35;;;;;;;17.85;7.85;;;;;;;;;;10434118;28;20056;-66
2023/12/07 07:13:36;;;;;;;10.98;7.68;;;;;;;;;;10433796;28;20048;-65
2023/12/07 07:18:40;;;;;;;22.90;8.13;;;;;;;;;;10433771;28;20032;-66
2023/12/07 07:23:40;;;;;;;29.23;9.05;;;;;;;;;;10439067;28;20032;-66
2023/12/07 07:28:41;;;;;;;17.30;8.13;;;;;;;;;;10445139;28;20028;-65
2023/12/07 07:33:41;;;;;;;29.33;8.38;;;;;;;;;;10433946;28;20028;-66
2023/12/07 07:38:43;;;;;;;18.17;8.02;;;;;;;;;;10436368;28;20091;-66
2023/12/07 07:43:44;;;;;;;18.52;7.57;;;;;;;;;;10442472;28;20029;-66
2023/12/07 07:48:45;;;;;;;13.27;7.07;;;;;;;;;;10431938;28;20051;-66
2023/12/07 07:53:46;;;;;;;23.75;7.53;;;;;;;;;;10444826;28;20041;-66
2023/12/07 07:58:47;;;;;;;17.23;7.30;;;;;;;;;;10447796;28;20041;-66
2023/12/07 08:03:48;;;;;;;15.27;8.05;;;;;;;;;;10441517;28;20033;-66
2023/12/07 08:08:49;;;;;;;14.98;7.65;;;;;;;;;;10453529;28;20476;-65
2023/12/07 08:13:50;;;;;;;14.93;7.70;;;;;;;;;;10438507;28;20133;-66
2023/12/07 08:18:51;;;;;;;17.30;7.95;;;;;;;;;;10451914;28;20496;-66
2023/12/07 08:23:51;;;;;;;29.10;9.13;;;;;;;;;;10451398;28;20153;-66
2023/12/07 08:28:53;;;;;;;19.73;7.75;;;;;;;;;;10450623;28;20109;-66
2023/12/07 08:33:54;;;;;;;24.50;8.90;;;;;;;;;;10437930;28;20539;-67
2023/12/07 08:38:54;;;;;;;18.00;7.53;;;;;;;;;;10451251;28;20029;-66
2023/12/07 08:43:55;;;;;;;26.50;8.90;;;;;;;;;;10437102;28;20079;-66
2023/12/07 08:48:56;;;;;;;19.27;8.57;;;;;;;;;;10438734;28;20025;-66
2023/12/07 08:53:56;;;;;;;23.00;8.77;;;;;;;;;;10450301;28;20160;-66
2023/12/07 08:58:57;;;;;;;21.45;8.15;;;;;;;;;;10450787;28;20105;-66
2023/12/07 09:03:57;;;;;;;14.70;8.20;;;;;;;;;;10449813;28;20029;-66
2023/12/07 09:08:58;;;;;;;20.40;8.50;;;;;;;;;;10459164;28;20075;-66
2023/12/07 09:13:59;;;;;;;16.35;7.65;;;;;;;;;;10450427;28;20025;-66
2023/12/07 09:19:00;;;;;;;24.45;7.82;;;;;;;;;;10450951;28;20032;-65
2023/12/07 09:24:01;;;;;;;33.13;9.40;;;;;;;;;;10449303;28;20469;-66
2023/12/07 09:29:01;;;;;;;16.58;9.30;;;;;;;;;;10449612;28;20431;-65
2023/12/07 09:34:02;;;;;;;13.65;8.15;;;;;;;;;;10448921;28;20568;-66
2023/12/07 09:39:03;;;;;;;14.68;8.35;;;;;;;;;;10436701;28;20029;-65
2023/12/07 09:44:04;;;;;;;16.58;8.10;;;;;;;;;;10423211;28;20048;-66
2023/12/07 09:49:05;;;;;;;15.93;7.70;;;;;;;;;;10436540;28;20052;-66
2023/12/07 09:54:06;;;;;;;16.02;8.27;;;;;;;;;;10440421;28;20042;-66
2023/12/07 09:59:07;;;;;;;13.90;7.50;;;;;;;;;;10424983;28;20472;-66
2023/12/07 10:04:25;;;;;;;18.83;7.82;;;;;;;;;;10435212;28;20029;-66
2023/12/07 10:09:26;;;;;;;17.57;8.07;;;;;;;;;;10455899;28;20456;-66
2023/12/07 10:14:27;;;;;;;14.50;7.90;;;;;;;;;;10448720;28;20108;-66
2023/12/07 10:19:28;;;;;;;15.95;7.78;;;;;;;;;;10447123;28;20033;-66
2023/12/07 10:24:30;;;;;;;11.48;7.28;;;;;;;;;;10434791;28;20107;-66
2023/12/07 10:29:34;;;;;;;10.35;7.07;;;;;;;;;;10439784;28;20051;-66
2023/12/07 10:34:36;;;;;;;13.88;7.20;;;;;;;;;;10445806;28;20029;-65
2023/12/07 10:39:37;;;;;;;13.20;6.93;;;;;;;;;;10421060;28;20052;-66
2023/12/07 10:44:42;;;;;;;11.52;6.70;;;;;;;;;;10434964;28;20040;-66
2023/12/07 10:49:46;;;;;;;12.40;6.57;;;;;;;;;;10432716;28;20417;-66
2023/12/07 10:55:05;;;;;;;13.57;7.72;;;;;;;;;;10444513;28;20041;-66
2023/12/07 11:00:09;;;;;;;8.93;6.30;;;;;;;;;;10444900;28;20369;-65
2023/12/07 11:05:10;;;;;;;14.90;6.93;;;;;;;;;;10432297;28;20122;-67
2023/12/07 11:10:28;;;;;;;8.65;6.32;;;;;;;;;;10456949;28;20554;-67
2023/12/07 11:15:29;;;;;;;11.37;6.03;;;;;;;;;;10420820;28;20068;-66
2023/12/07 11:20:41;;;;;;;9.93;6.03;;;;;;;;;;10442149;28;20032;-66
2023/12/07 11:25:44;;;;;;;10.32;6.57;;;;;;;;;;10460163;28;20056;-66
2023/12/07 11:30:46;;;;;;;10.43;6.43;;;;;;;;;;10408444;28;20509;-66
2023/12/07 11:36:02;;;;;;;12.82;6.63;;;;;;;;;;10431374;28;20508;-66
2023/12/07 11:41:02;;;;;;;10.35;6.00;;;;;;;;;;10431264;28;20029;-65
2023/12/07 11:46:03;;;;;;;12.32;5.88;;;;;;;;;;10443315;28;20032;-66
2023/12/07 11:51:10;;;;;;;12.15;6.32;;;;;;;;;;10445010;28;20060;-66
2023/12/07 11:56:13;;;;;;;10.80;6.53;;;;;;;;;;10444301;28;20029;-66
2023/12/07 12:01:13;;;;;;;10.55;5.85;;;;;;;;;;10444249;28;20024;-66
2023/12/07 12:06:14;;;;;;;10.18;6.20;;;;;;;;;;10450845;28;20021;-65
2023/12/07 12:11:14;;;;;;;9.02;6.10;;;;;;;;;;10449460;28;20021;-66
2023/12/07 12:16:15;;;;;;;9.68;5.90;;;;;;;;;;10440650;28;20044;-66
2023/12/07 12:21:16;;;;;;;7.80;5.85;;;;;;;;;;10436776;28;20492;-65
2023/12/07 12:26:18;;;;;;;9.98;5.75;;;;;;;;;;10438168;28;20025;-66
2023/12/07 12:31:19;;;;;;;14.05;6.13;;;;;;;;;;10441384;28;20214;-66
2023/12/07 12:36:23;;;;;;;9.27;5.43;;;;;;;;;;10439129;28;20388;-66
2023/12/07 12:41:23;;;;;;;9.05;5.85;;;;;;;;;;10444051;28;20044;-65
2023/12/07 12:46:24;;;;;;;8.65;5.93;;;;;;;;;;10449582;28;20033;-66
2023/12/07 12:51:27;;;;;;;7.78;5.22;;;;;;;;;;10451389;28;20053;-66
2023/12/07 12:56:28;;;;;;;8.43;5.50;;;;;;;;;;10444944;28;20112;-66
2023/12/07 13:01:29;;;;;;;7.10;5.18;;;;;;;;;;10450831;28;20024;-66
2023/12/07 13:06:30;;;;;;;6.72;5.22;;;;;;;;;;10451407;28;20025;-66
2023/12/07 13:11:30;;;;;;;11.07;4.97;;;;;;;;;;10448894;28;20122;-66
2023/12/07 13:16:31;;;;;;;8.82;4.90;;;;;;;;;;10449807;28;20033;-65
2023/12/07 13:21:32;;;;;;;6.55;5.00;;;;;;;;;;10441887;28;20036;-66
2023/12/07 13:26:32;;;;;;;8.80;5.03;;;;;;;;;;10444490;28;20036;-66
2023/12/07 13:31:34;;;;;;;12.18;4.90;;;;;;;;;;10440698;28;20060;-66
2023/12/07 13:36:36;;;;;;;7.95;4.85;;;;;;;;;;10445152;28;20033;-66
2023/12/07 13:41:36;;;;;;;11.48;5.18;;;;;;;;;;10448517;28;20039;-66
2023/12/07 13:46:37;;;;;;;14.35;4.90;;;;;;;;;;10448608;28;20032;-66
2023/12/07 13:51:38;;;;;;;6.50;5.00;;;;;;;;;;10445189;28;20049;-66
2023/12/07 13:56:39;;;;;;;6.65;4.47;;;;;;;;;;10447421;28;20029;-67
2023/12/07 14:01:39;;;;;;;8.73;4.72;;;;;;;;;;10449380;28;20021;-67
2023/12/07 14:06:40;;;;;;;6.32;4.68;;;;;;;;;;10447017;28;20029;-66
2023/12/07 14:11:40;;;;;;;7.93;4.78;;;;;;;;;;10438845;28;20044;-66
2023/12/07 14:16:41;;;;;;;7.60;4.47;;;;;;;;;;10443275;28;20226;-66
2023/12/07 14:21:42;;;;;;;7.82;4.78;;;;;;;;;;10448809;28;20049;-66
2023/12/07 14:26:43;;;;;;;6.65;4.57;;;;;;;;;;10443653;28;20126;-66
2023/12/07 14:31:45;;;;;;;6.72;4.50;;;;;;;;;;10429001;28;20110;-67
2023/12/07 14:36:46;;;;;;;9.13;5.20;;;;;;;;;;10447139;28;20542;-66
2023/12/07 14:41:48;;;;;;;5.75;4.55;;;;;;;;;;10446799;28;20021;-66
2023/12/07 14:46:48;;;;;;;5.72;4.40;;;;;;;;;;10445714;28;20024;-66
2023/12/07 14:51:50;;;;;;;5.78;4.75;;;;;;;;;;10445784;28;20110;-67
2023/12/07 14:56:50;;;;;;;7.10;4.22;;;;;;;;;;10446378;28;20041;-66
2023/12/07 15:01:51;;;;;;;9.13;4.35;;;;;;;;;;10445768;28;20025;-67
2023/12/07 15:06:54;;;;;;;7.32;4.68;;;;;;;;;;10456957;28;20396;-66
2023/12/07 15:11:55;;;;;;;6.13;4.75;;;;;;;;;;10446760;28;20028;-67
2023/12/07 15:16:56;;;;;;;8.15;4.53;;;;;;;;;;10446071;28;20480;-67
2023/12/07 15:21:56;;;;;;;6.00;4.90;;;;;;;;;;10445864;28;20024;-66
2023/12/07 15:26:57;;;;;;;5.90;4.20;;;;;;;;;;10444781;28;20025;-65
2023/12/07 15:31:57;;;;;;;7.35;4.85;;;;;;;;;;10436826;28;20032;-65
2023/12/07 15:36:58;;;;;;;7.25;4.55;;;;;;;;;;10429194;28;20029;-65
2023/12/07 15:41:58;;;;;;;7.65;4.80;;;;;;;;;;10434535;28;20037;-65
2023/12/07 15:46:59;;;;;;;6.35;4.85;;;;;;;;;;10444505;28;20071;-66
2023/12/07 15:52:00;;;;;;;5.55;4.30;;;;;;;;;;10444410;28;20044;-66
2023/12/07 15:57:00;;;;;;;7.78;4.60;;;;;;;;;;10445237;28;20029;-65
2023/12/07 16:02:01;;;;;;;6.28;4.10;;;;;;;;;;10440672;28;20036;-65
2023/12/07 16:07:04;;;;;;;5.90;4.53;;;;;;;;;;10446209;28;20029;-66
2023/12/07 16:12:05;;;;;;;4.68;4.10;;;;;;;;;;10444915;28;20039;-66
2023/12/07 16:17:07;;;;;;;7.07;4.85;;;;;;;;;;10418457;28;20055;-65
2023/12/07 16:22:08;;;;;;;4.88;4.28;;;;;;;;;;10436599;28;20025;-65
2023/12/07 16:27:08;;;;;;;6.55;5.20;;;;;;;;;;10452026;28;20029;-66
2023/12/07 16:32:09;;;;;;;6.57;4.93;;;;;;;;;;10452190;28;20021;-66
2023/12/07 16:37:09;;;;;;;5.78;4.50;;;;;;;;;;10451917;28;20028;-65
2023/12/07 16:42:11;;;;;;;9.73;4.60;;;;;;;;;;10451069;28;20028;-65
2023/12/07 16:47:11;;;;;;;6.50;4.93;;;;;;;;;;10439250;28;20488;-66
2023/12/07 16:52:12;;;;;;;7.57;5.18;;;;;;;;;;10444578;28;20056;-67
2023/12/07 16:57:13;;;;;;;6.05;4.57;;;;;;;;;;10451560;28;20366;-68
2023/12/07 17:02:13;;;;;;;7.72;5.30;;;;;;;;;;10445142;28;20550;-67
2023/12/07 17:07:14;;;;;;;6.90;5.18;;;;;;;;;;10450306;28;20025;-67
2023/12/07 17:12:14;;;;;;;9.40;5.07;;;;;;;;;;10449532;28;20075;-67
2023/12/07 17:17:15;;;;;;;5.72;5.13;;;;;;;;;;10448353;28;20025;-64
2023/12/07 17:22:16;;;;;;;5.60;4.53;;;;;;;;;;10449265;28;20080;-64
2023/12/07 17:27:16;;;;;;;6.13;4.90;;;;;;;;;;10446342;28;20435;-65
2023/12/07 17:32:17;;;;;;;7.20;4.78;;;;;;;;;;10444188;28;20036;-65
2023/12/07 17:37:19;;;;;;;7.93;5.13;;;;;;;;;;10435293;28;20025;-65
2023/12/07 17:42:20;;;;;;;7.53;5.15;;;;;;;;;;10442202;28;20033;-64
2023/12/07 17:47:22;;;;;;;7.88;4.78;;;;;;;;;;10444276;28;20558;-64
2023/12/07 17:52:23;;;;;;;7.18;4.65;;;;;;;;;;10446773;28;20156;-64
2023/12/07 17:57:24;;;;;;;6.78;4.75;;;;;;;;;;10436269;28;20544;-64
2023/12/07 18:02:24;;;;;;;7.55;5.35;;;;;;;;;;10431609;28;20052;-64
2023/12/07 18:07:25;;;;;;;7.50;5.13;;;;;;;;;;10442657;28;20021;-64
2023/12/07 18:12:25;;;;;;;6.38;5.00;;;;;;;;;;10439642;28;20396;-64
2023/12/07 18:17:26;;;;;;;7.70;5.75;;;;;;;;;;10445028;28;20025;-62
2023/12/07 18:22:27;;;;;;;11.15;5.55;;;;;;;;;;10444602;28;20025;-62
2023/12/07 18:27:27;;;;;;;16.60;6.35;;;;;;;;;;10432286;28;20152;-62
2023/12/07 18:32:28;;;;;;;8.88;5.85;;;;;;;;;;10445344;28;20036;-61
2023/12/07 18:37:29;;;;;;;11.20;5.63;;;;;;;;;;10441141;28;20036;-62
2023/12/07 18:42:29;;;;;;;11.38;6.10;;;;;;;;;;10442765;28;20091;-61
2023/12/07 18:47:30;;;;;;;8.43;5.93;;;;;;;;;;10441998;28;20419;-65
2023/12/07 18:52:31;;;;;;;12.68;6.20;;;;;;;;;;10445685;28;20064;-65
2023/12/07 18:57:31;;;;;;;8.65;5.38;;;;;;;;;;10437874;28;20040;-64
2023/12/07 19:02:32;;;;;;;9.63;5.70;;;;;;;;;;10433983;28;20033;-65
2023/12/07 19:07:32;;;;;;;14.07;5.93;;;;;;;;;;10437893;28;20061;-65
2023/12/07 19:12:33;;;;;;;18.13;6.65;;;;;;;;;;10437977;28;20033;-66
2023/12/07 19:17:33;;;;;;;11.60;5.88;;;;;;;;;;10432207;28;20095;-64
2023/12/07 19:22:34;;;;;;;14.40;6.35;;;;;;;;;;10439793;28;20036;-64
2023/12/07 19:27:34;;;;;;;19.15;6.82;;;;;;;;;;10438547;28;20029;-62
2023/12/07 19:32:35;;;;;;;28.48;7.78;;;;;;;;;;10434751;28;20032;-62
2023/12/07 19:37:36;;;;;;;25.75;8.10;;;;;;;;;;10421824;28;20037;-63
2023/12/07 19:42:36;;;;;;;16.55;6.85;;;;;;;;;;10436322;28;20036;-62
2023/12/07 19:47:37;;;;;;;14.07;6.65;;;;;;;;;;10438588;28;20106;-62
2023/12/07 19:52:37;;;;;;;19.48;7.53;;;;;;;;;;10439588;28;20514;-62
2023/12/07 19:57:42;;;;;;;18.77;7.78;;;;;;;;;;10450708;28;20388;-62
2023/12/07 20:02:42;;;;;;;14.93;6.97;;;;;;;;;;10450775;28;20128;-64
2023/12/07 20:07:43;;;;;;;13.68;6.30;;;;;;;;;;10449624;28;20268;-64
2023/12/07 20:12:44;;;;;;;13.85;6.40;;;;;;;;;;10451443;28;20033;-64
2023/12/07 20:17:44;;;;;;;12.70;5.80;;;;;;;;;;10444626;28;20031;-66
2023/12/07 20:22:45;;;;;;;14.98;6.07;;;;;;;;;;10449916;28;20029;-66
2023/12/07 20:27:45;;;;;;;10.30;6.25;;;;;;;;;;10443196;28;20040;-66
2023/12/07 20:32:47;;;;;;;9.45;5.63;;;;;;;;;;10416378;28;20033;-66
2023/12/07 20:37:47;;;;;;;10.45;6.25;;;;;;;;;;10439453;28;20107;-66
2023/12/07 20:42:48;;;;;;;15.48;6.03;;;;;;;;;;10437133;28;20083;-66
2023/12/07 20:47:49;;;;;;;12.65;6.88;;;;;;;;;;10430687;28;20029;-66
2023/12/07 20:52:49;;;;;;;19.67;7.05;;;;;;;;;;10437179;28;20403;-66
2023/12/07 20:57:51;;;;;;;9.45;6.30;;;;;;;;;;10442899;28;20025;-66
2023/12/07 21:02:51;;;;;;;16.05;7.20;;;;;;;;;;10442226;28;20064;-66
2023/12/07 21:07:52;;;;;;;20.73;6.65;;;;;;;;;;10444206;28;20036;-65
2023/12/07 21:12:56;;;;;;;13.30;6.32;;;;;;;;;;10445970;28;20472;-66
2023/12/07 21:17:57;;;;;;;10.73;6.40;;;;;;;;;;10444963;28;20049;-66
2023/12/07 21:22:57;;;;;;;12.80;5.82;;;;;;;;;;10436528;28;20389;-66
2023/12/07 21:27:58;;;;;;;16.73;7.38;;;;;;;;;;10438577;28;20025;-66
2023/12/07 21:32:59;;;;;;;7.68;5.75;;;;;;;;;;10435276;28;20056;-66
2023/12/07 21:37:59;;;;;;;10.80;6.00;;;;;;;;;;10435943;28;20025;-66
2023/12/07 21:43:01;;;;;;;11.40;5.65;;;;;;;;;;10420078;28;20032;-66
2023/12/07 21:48:02;;;;;;;13.05;7.05;;;;;;;;;;10433669;28;20041;-66
2023/12/07 21:53:03;;;;;;;19.58;8.35;;;;;;;;;;10435162;28;20049;-66
2023/12/07 21:58:04;;;;;;;17.48;8.23;;;;;;;;;;10444271;28;20112;-66
2023/12/07 22:03:04;;;;;;;15.30;7.90;;;;;;;;;;10442072;28;20036;-66
2023/12/07 22:08:05;;;;;;;21.90;7.82;;;;;;;;;;10447744;28;20215;-66
2023/12/07 22:13:05;;;;;;;12.90;7.47;;;;;;;;;;10440387;28;20041;-66
2023/12/07 22:18:06;;;;;;;12.70;8.15;;;;;;;;;;10435530;28;20063;-65
2023/12/07 22:23:06;;;;;;;16.20;8.20;;;;;;;;;;10436623;28;20511;-65
2023/12/07 22:28:07;;;;;;;15.50;8.15;;;;;;;;;;10441276;28;20040;-65
2023/12/07 22:33:08;;;;;;;12.38;7.25;;;;;;;;;;10444323;28;20051;-65
2023/12/07 22:38:08;;;;;;;15.60;8.50;;;;;;;;;;10443224;28;20033;-65
2023/12/07 22:43:09;;;;;;;13.00;7.05;;;;;;;;;;10416397;28;20032;-65
2023/12/07 22:48:10;;;;;;;9.48;7.68;;;;;;;;;;10442094;28;20033;-65
2023/12/07 22:53:10;;;;;;;11.25;7.47;;;;;;;;;;10436454;28;20377;-64
2023/12/07 22:58:11;;;;;;;12.90;7.63;;;;;;;;;;10432900;28;20029;-64
2023/12/07 23:03:11;;;;;;;16.35;8.05;;;;;;;;;;10441698;28;20034;-63
2023/12/07 23:08:12;;;;;;;16.67;7.20;;;;;;;;;;10441428;28;20516;-63
2023/12/07 23:13:12;;;;;;;14.07;7.13;;;;;;;;;;10441600;28;20413;-64
2023/12/07 23:18:13;;;;;;;13.13;7.03;;;;;;;;;;10444172;28;20475;-66
2023/12/07 23:23:14;;;;;;;14.10;7.50;;;;;;;;;;10444109;28;21634;-66
2023/12/07 23:28:14;;;;;;;17.00;7.10;;;;;;;;;;10443582;28;20491;-67
2023/12/07 23:33:15;;;;;;;12.50;7.03;;;;;;;;;;10444636;28;20025;-66
2023/12/07 23:38:15;;;;;;;20.08;7.07;;;;;;;;;;10443950;28;20349;-65
2023/12/07 23:43:16;;;;;;;12.88;6.75;;;;;;;;;;10419789;28;20033;-67
2023/12/07 23:48:16;;;;;;;14.18;6.85;;;;;;;;;;10445582;28;20036;-66
2023/12/07 23:53:17;;;;;;;14.15;7.28;;;;;;;;;;10444542;28;20124;-67
2023/12/07 23:58:18;;;;;;;17.00;6.97;;;;;;;;;;10431970;28;20495;-66
